Terminal Aerodrome Forecast
Issued by NWS Pocatello, ID

Home | Current Version | Previous Version | Text Only | Print | Product List | Glossary On
Versions: 1 2 3 4 5 6 7 8 9 10 11 12 13 14 15 16 17
000
FTUS45 KPIH 281100
TAFBYI
TAF
KBYI 281136Z 2812/2912 21014KT 3SM -SN SCT010 OVC020
      TEMPO 2812/2815 23015KT 1SM -SN OVC008
     FM281500 25015G25KT 2SM -SN OVC008
     FM281800 26020G28KT 2SM -SN BLSN OVC012
     FM290200 24013KT P6SM BKN025 OVC035=

USA.gov is the U.S. government's official web portal to all federal, state and local government web resources and services.